sensor_id;sensor_type;location;lat;lon;timestamp;P1;durP1;ratioP1;P2;durP2;ratioP2
55007;SDS011;40902;45.116;21.296;2024-02-26T00:02:25;14.68;;;11.30;;
55007;SDS011;40902;45.116;21.296;2024-02-26T00:04:51;13.15;;;11.13;;
55007;SDS011;40902;45.116;21.296;2024-02-26T00:07:17;17.23;;;12.27;;
55007;SDS011;40902;45.116;21.296;2024-02-26T00:09:42;12.63;;;10.98;;
55007;SDS011;40902;45.116;21.296;2024-02-26T00:12:08;13.68;;;11.65;;
55007;SDS011;40902;45.116;21.296;2024-02-26T00:14:34;12.27;;;10.98;;
55007;SDS011;40902;45.116;21.296;2024-02-26T00:17:00;12.63;;;10.48;;
55007;SDS011;40902;45.116;21.296;2024-02-26T00:19:26;13.40;;;11.27;;
55007;SDS011;40902;45.116;21.296;2024-02-26T00:21:51;13.57;;;12.00;;
55007;SDS011;40902;45.116;21.296;2024-02-26T00:24:18;13.10;;;11.45;;
55007;SDS011;40902;45.116;21.296;2024-02-26T00:26:44;12.98;;;11.20;;
55007;SDS011;40902;45.116;21.296;2024-02-26T00:29:10;14.63;;;11.40;;
55007;SDS011;40902;45.116;21.296;2024-02-26T00:31:36;14.43;;;12.25;;
55007;SDS011;40902;45.116;21.296;2024-02-26T00:34:05;13.25;;;10.75;;
55007;SDS011;40902;45.116;21.296;2024-02-26T00:36:31;14.55;;;10.93;;
55007;SDS011;40902;45.116;21.296;2024-02-26T00:38:56;12.25;;;10.73;;
55007;SDS011;40902;45.116;21.296;2024-02-26T00:41:22;14.27;;;11.52;;
55007;SDS011;40902;45.116;21.296;2024-02-26T00:43:48;14.02;;;11.27;;
55007;SDS011;40902;45.116;21.296;2024-02-26T00:46:14;15.52;;;11.50;;
55007;SDS011;40902;45.116;21.296;2024-02-26T00:48:39;14.80;;;11.45;;
55007;SDS011;40902;45.116;21.296;2024-02-26T00:51:05;15.82;;;13.02;;
55007;SDS011;40902;45.116;21.296;2024-02-26T00:53:32;19.50;;;13.50;;
55007;SDS011;40902;45.116;21.296;2024-02-26T00:55:58;17.10;;;12.23;;
55007;SDS011;40902;45.116;21.296;2024-02-26T00:58:24;16.33;;;12.27;;
55007;SDS011;40902;45.116;21.296;2024-02-26T01:00:50;14.70;;;12.95;;
55007;SDS011;40902;45.116;21.296;2024-02-26T01:03:17;18.20;;;13.55;;
55007;SDS011;40902;45.116;21.296;2024-02-26T01:05:43;19.05;;;13.27;;
55007;SDS011;40902;45.116;21.296;2024-02-26T01:08:09;15.85;;;13.50;;
55007;SDS011;40902;45.116;21.296;2024-02-26T01:10:34;15.57;;;12.90;;
55007;SDS011;40902;45.116;21.296;2024-02-26T01:13:01;16.83;;;14.10;;
55007;SDS011;40902;45.116;21.296;2024-02-26T01:15:27;16.05;;;13.85;;
55007;SDS011;40902;45.116;21.296;2024-02-26T01:17:53;15.55;;;13.30;;
55007;SDS011;40902;45.116;21.296;2024-02-26T01:20:19;17.63;;;14.65;;
55007;SDS011;40902;45.116;21.296;2024-02-26T01:22:45;18.17;;;13.80;;
55007;SDS011;40902;45.116;21.296;2024-02-26T01:25:12;18.52;;;13.98;;
55007;SDS011;40902;45.116;21.296;2024-02-26T01:27:38;17.73;;;13.43;;
55007;SDS011;40902;45.116;21.296;2024-02-26T01:30:06;18.60;;;14.38;;
55007;SDS011;40902;45.116;21.296;2024-02-26T01:32:32;16.75;;;13.90;;
55007;SDS011;40902;45.116;21.296;2024-02-26T01:34:58;17.60;;;14.52;;
55007;SDS011;40902;45.116;21.296;2024-02-26T01:37:24;16.45;;;14.32;;
55007;SDS011;40902;45.116;21.296;2024-02-26T01:39:50;17.50;;;14.68;;
55007;SDS011;40902;45.116;21.296;2024-02-26T01:42:15;18.48;;;14.55;;
55007;SDS011;40902;45.116;21.296;2024-02-26T01:44:41;16.17;;;14.48;;
55007;SDS011;40902;45.116;21.296;2024-02-26T01:47:07;19.27;;;14.30;;
55007;SDS011;40902;45.116;21.296;2024-02-26T01:49:36;17.90;;;15.13;;
55007;SDS011;40902;45.116;21.296;2024-02-26T01:52:02;17.05;;;14.77;;
55007;SDS011;40902;45.116;21.296;2024-02-26T01:54:29;18.40;;;15.48;;
55007;SDS011;40902;45.116;21.296;2024-02-26T01:56:56;17.95;;;14.57;;
55007;SDS011;40902;45.116;21.296;2024-02-26T01:59:22;19.58;;;14.80;;
55007;SDS011;40902;45.116;21.296;2024-02-26T02:01:52;17.10;;;15.27;;
55007;SDS011;40902;45.116;21.296;2024-02-26T02:04:22;17.37;;;14.13;;
55007;SDS011;40902;45.116;21.296;2024-02-26T02:06:49;17.98;;;15.15;;
55007;SDS011;40902;45.116;21.296;2024-02-26T02:09:15;17.67;;;14.30;;
55007;SDS011;40902;45.116;21.296;2024-02-26T02:11:41;20.27;;;14.77;;
55007;SDS011;40902;45.116;21.296;2024-02-26T02:14:07;17.25;;;13.75;;
55007;SDS011;40902;45.116;21.296;2024-02-26T02:16:33;15.90;;;13.25;;
55007;SDS011;40902;45.116;21.296;2024-02-26T02:18:59;16.92;;;13.45;;
55007;SDS011;40902;45.116;21.296;2024-02-26T02:21:24;18.17;;;14.23;;
55007;SDS011;40902;45.116;21.296;2024-02-26T02:23:50;18.88;;;13.85;;
55007;SDS011;40902;45.116;21.296;2024-02-26T02:26:16;16.63;;;13.85;;
55007;SDS011;40902;45.116;21.296;2024-02-26T02:28:42;19.70;;;13.75;;
55007;SDS011;40902;45.116;21.296;2024-02-26T02:31:08;17.50;;;13.50;;
55007;SDS011;40902;45.116;21.296;2024-02-26T02:33:34;19.77;;;13.70;;
55007;SDS011;40902;45.116;21.296;2024-02-26T02:36:01;19.20;;;12.98;;
55007;SDS011;40902;45.116;21.296;2024-02-26T02:38:27;17.92;;;13.48;;
55007;SDS011;40902;45.116;21.296;2024-02-26T02:40:55;15.82;;;12.77;;
55007;SDS011;40902;45.116;21.296;2024-02-26T02:43:20;17.38;;;13.23;;
55007;SDS011;40902;45.116;21.296;2024-02-26T02:45:46;16.48;;;13.30;;
55007;SDS011;40902;45.116;21.296;2024-02-26T02:48:12;16.05;;;12.82;;
55007;SDS011;40902;45.116;21.296;2024-02-26T02:50:38;17.00;;;13.13;;
55007;SDS011;40902;45.116;21.296;2024-02-26T02:53:03;14.85;;;12.10;;
55007;SDS011;40902;45.116;21.296;2024-02-26T02:55:29;16.92;;;13.23;;
55007;SDS011;40902;45.116;21.296;2024-02-26T02:57:55;15.68;;;12.93;;
55007;SDS011;40902;45.116;21.296;2024-02-26T03:00:21;15.43;;;13.13;;
55007;SDS011;40902;45.116;21.296;2024-02-26T03:02:48;19.00;;;13.13;;
55007;SDS011;40902;45.116;21.296;2024-02-26T03:05:14;16.98;;;12.57;;
55007;SDS011;40902;45.116;21.296;2024-02-26T03:07:40;17.00;;;12.55;;
55007;SDS011;40902;45.116;21.296;2024-02-26T03:10:06;19.70;;;12.73;;
55007;SDS011;40902;45.116;21.296;2024-02-26T03:12:33;15.05;;;12.38;;
55007;SDS011;40902;45.116;21.296;2024-02-26T03:14:59;15.07;;;11.95;;
55007;SDS011;40902;45.116;21.296;2024-02-26T03:17:28;18.45;;;12.10;;
55007;SDS011;40902;45.116;21.296;2024-02-26T03:19:54;15.40;;;12.18;;
55007;SDS011;40902;45.116;21.296;2024-02-26T03:22:20;15.25;;;12.38;;
55007;SDS011;40902;45.116;21.296;2024-02-26T03:24:46;15.43;;;12.13;;
55007;SDS011;40902;45.116;21.296;2024-02-26T03:27:12;15.88;;;13.00;;
55007;SDS011;40902;45.116;21.296;2024-02-26T03:29:38;18.70;;;11.80;;
55007;SDS011;40902;45.116;21.296;2024-02-26T03:32:04;15.98;;;12.00;;
55007;SDS011;40902;45.116;21.296;2024-02-26T03:34:31;14.55;;;11.80;;
55007;SDS011;40902;45.116;21.296;2024-02-26T03:36:59;17.52;;;12.82;;
55007;SDS011;40902;45.116;21.296;2024-02-26T03:39:25;13.75;;;11.32;;
55007;SDS011;40902;45.116;21.296;2024-02-26T03:41:51;16.88;;;11.77;;
55007;SDS011;40902;45.116;21.296;2024-02-26T03:44:17;15.38;;;11.50;;
55007;SDS011;40902;45.116;21.296;2024-02-26T03:46:43;15.68;;;12.27;;
55007;SDS011;40902;45.116;21.296;2024-02-26T03:49:09;15.82;;;11.77;;
55007;SDS011;40902;45.116;21.296;2024-02-26T03:51:35;16.98;;;12.48;;
55007;SDS011;40902;45.116;21.296;2024-02-26T03:54:01;15.88;;;12.40;;
55007;SDS011;40902;45.116;21.296;2024-02-26T03:56:27;17.35;;;12.18;;
55007;SDS011;40902;45.116;21.296;2024-02-26T03:58:53;17.35;;;12.18;;
55007;SDS011;40902;45.116;21.296;2024-02-26T04:01:19;13.25;;;10.63;;
55007;SDS011;40902;45.116;21.296;2024-02-26T04:03:44;13.18;;;11.20;;
55007;SDS011;40902;45.116;21.296;2024-02-26T04:06:11;15.23;;;11.90;;
55007;SDS011;40902;45.116;21.296;2024-02-26T04:08:40;12.68;;;11.23;;
55007;SDS011;40902;45.116;21.296;2024-02-26T04:11:06;15.73;;;11.95;;
55007;SDS011;40902;45.116;21.296;2024-02-26T04:13:35;13.00;;;10.63;;
55007;SDS011;40902;45.116;21.296;2024-02-26T04:16:05;14.18;;;11.43;;
55007;SDS011;40902;45.116;21.296;2024-02-26T04:18:31;14.77;;;11.32;;
55007;SDS011;40902;45.116;21.296;2024-02-26T04:20:57;15.40;;;11.85;;
55007;SDS011;40902;45.116;21.296;2024-02-26T04:23:23;12.85;;;11.25;;
55007;SDS011;40902;45.116;21.296;2024-02-26T04:25:49;15.32;;;11.57;;
55007;SDS011;40902;45.116;21.296;2024-02-26T04:28:15;15.13;;;11.43;;
55007;SDS011;40902;45.116;21.296;2024-02-26T04:30:41;15.63;;;11.27;;
55007;SDS011;40902;45.116;21.296;2024-02-26T04:33:07;16.52;;;11.05;;
55007;SDS011;40902;45.116;21.296;2024-02-26T04:35:33;16.42;;;12.18;;
55007;SDS011;40902;45.116;21.296;2024-02-26T04:38:00;15.27;;;11.88;;
55007;SDS011;40902;45.116;21.296;2024-02-26T04:40:26;13.02;;;11.25;;
55007;SDS011;40902;45.116;21.296;2024-02-26T04:42:52;15.27;;;12.00;;
55007;SDS011;40902;45.116;21.296;2024-02-26T04:45:18;13.48;;;11.38;;
55007;SDS011;40902;45.116;21.296;2024-02-26T04:47:43;15.60;;;11.45;;
55007;SDS011;40902;45.116;21.296;2024-02-26T04:50:09;15.13;;;11.23;;
55007;SDS011;40902;45.116;21.296;2024-02-26T04:52:36;14.48;;;11.20;;
55007;SDS011;40902;45.116;21.296;2024-02-26T04:55:02;14.90;;;11.50;;
55007;SDS011;40902;45.116;21.296;2024-02-26T04:57:28;16.25;;;12.40;;
55007;SDS011;40902;45.116;21.296;2024-02-26T04:59:54;15.52;;;12.48;;
55007;SDS011;40902;45.116;21.296;2024-02-26T05:02:20;19.13;;;12.65;;
55007;SDS011;40902;45.116;21.296;2024-02-26T05:04:46;14.85;;;11.60;;
55007;SDS011;40902;45.116;21.296;2024-02-26T05:07:12;15.20;;;12.07;;
55007;SDS011;40902;45.116;21.296;2024-02-26T05:09:38;16.65;;;13.23;;
55007;SDS011;40902;45.116;21.296;2024-02-26T05:12:03;17.15;;;12.68;;
55007;SDS011;40902;45.116;21.296;2024-02-26T05:14:30;17.45;;;12.57;;
55007;SDS011;40902;45.116;21.296;2024-02-26T05:16:55;16.75;;;13.52;;
55007;SDS011;40902;45.116;21.296;2024-02-26T05:19:21;16.10;;;13.63;;
55007;SDS011;40902;45.116;21.296;2024-02-26T05:21:47;15.63;;;12.80;;
55007;SDS011;40902;45.116;21.296;2024-02-26T05:24:15;15.13;;;12.85;;
55007;SDS011;40902;45.116;21.296;2024-02-26T05:26:42;15.48;;;13.20;;
55007;SDS011;40902;45.116;21.296;2024-02-26T05:29:08;16.63;;;13.38;;
55007;SDS011;40902;45.116;21.296;2024-02-26T05:31:34;16.52;;;14.05;;
55007;SDS011;40902;45.116;21.296;2024-02-26T05:34:00;18.90;;;14.02;;
55007;SDS011;40902;45.116;21.296;2024-02-26T05:36:26;17.08;;;13.68;;
55007;SDS011;40902;45.116;21.296;2024-02-26T05:38:53;19.10;;;13.45;;
55007;SDS011;40902;45.116;21.296;2024-02-26T05:41:19;17.88;;;14.43;;
55007;SDS011;40902;45.116;21.296;2024-02-26T05:43:50;22.48;;;14.90;;
55007;SDS011;40902;45.116;21.296;2024-02-26T05:46:17;19.10;;;14.35;;
55007;SDS011;40902;45.116;21.296;2024-02-26T05:48:44;19.10;;;13.63;;
55007;SDS011;40902;45.116;21.296;2024-02-26T05:51:11;18.35;;;14.55;;
55007;SDS011;40902;45.116;21.296;2024-02-26T05:53:36;19.92;;;14.48;;
55007;SDS011;40902;45.116;21.296;2024-02-26T05:56:02;18.02;;;14.18;;
55007;SDS011;40902;45.116;21.296;2024-02-26T05:58:28;17.13;;;13.52;;
55007;SDS011;40902;45.116;21.296;2024-02-26T06:00:54;15.30;;;12.90;;
55007;SDS011;40902;45.116;21.296;2024-02-26T06:03:20;16.45;;;13.18;;
55007;SDS011;40902;45.116;21.296;2024-02-26T06:05:46;18.23;;;14.23;;
55007;SDS011;40902;45.116;21.296;2024-02-26T06:08:11;18.42;;;14.02;;
55007;SDS011;40902;45.116;21.296;2024-02-26T06:10:38;16.30;;;13.38;;
55007;SDS011;40902;45.116;21.296;2024-02-26T06:13:04;18.63;;;15.18;;
55007;SDS011;40902;45.116;21.296;2024-02-26T06:15:30;16.25;;;13.18;;
55007;SDS011;40902;45.116;21.296;2024-02-26T06:17:56;15.75;;;13.25;;
55007;SDS011;40902;45.116;21.296;2024-02-26T06:20:22;15.85;;;13.20;;
55007;SDS011;40902;45.116;21.296;2024-02-26T06:22:47;18.33;;;13.50;;
55007;SDS011;40902;45.116;21.296;2024-02-26T06:25:13;15.93;;;13.18;;
55007;SDS011;40902;45.116;21.296;2024-02-26T06:27:39;15.57;;;13.02;;
55007;SDS011;40902;45.116;21.296;2024-02-26T06:30:05;17.73;;;13.00;;
55007;SDS011;40902;45.116;21.296;2024-02-26T06:32:31;17.40;;;14.23;;
55007;SDS011;40902;45.116;21.296;2024-02-26T06:34:57;17.83;;;13.45;;
55007;SDS011;40902;45.116;21.296;2024-02-26T06:37:23;17.38;;;13.98;;
55007;SDS011;40902;45.116;21.296;2024-02-26T06:39:48;17.67;;;13.73;;
55007;SDS011;40902;45.116;21.296;2024-02-26T06:42:14;15.38;;;13.38;;
55007;SDS011;40902;45.116;21.296;2024-02-26T06:44:40;19.98;;;13.80;;
55007;SDS011;40902;45.116;21.296;2024-02-26T06:47:05;16.45;;;13.07;;
55007;SDS011;40902;45.116;21.296;2024-02-26T06:49:31;19.40;;;13.98;;
55007;SDS011;40902;45.116;21.296;2024-02-26T06:51:57;18.83;;;12.88;;
55007;SDS011;40902;45.116;21.296;2024-02-26T06:54:23;18.95;;;14.25;;
55007;SDS011;40902;45.116;21.296;2024-02-26T06:56:49;18.02;;;14.10;;
55007;SDS011;40902;45.116;21.296;2024-02-26T06:59:15;17.00;;;14.23;;
55007;SDS011;40902;45.116;21.296;2024-02-26T07:01:41;19.90;;;14.52;;
55007;SDS011;40902;45.116;21.296;2024-02-26T07:04:07;17.98;;;14.50;;
55007;SDS011;40902;45.116;21.296;2024-02-26T07:06:33;16.45;;;14.02;;
55007;SDS011;40902;45.116;21.296;2024-02-26T07:08:59;17.77;;;13.68;;
55007;SDS011;40902;45.116;21.296;2024-02-26T07:11:25;16.67;;;13.60;;
55007;SDS011;40902;45.116;21.296;2024-02-26T07:13:51;14.45;;;12.15;;
55007;SDS011;40902;45.116;21.296;2024-02-26T07:16:16;18.27;;;13.77;;
55007;SDS011;40902;45.116;21.296;2024-02-26T07:18:42;19.73;;;13.18;;
55007;SDS011;40902;45.116;21.296;2024-02-26T07:21:14;16.80;;;13.25;;
55007;SDS011;40902;45.116;21.296;2024-02-26T07:23:39;15.68;;;12.75;;
55007;SDS011;40902;45.116;21.296;2024-02-26T07:26:05;16.95;;;12.27;;
55007;SDS011;40902;45.116;21.296;2024-02-26T07:28:33;18.15;;;12.90;;
55007;SDS011;40902;45.116;21.296;2024-02-26T07:30:59;16.15;;;11.75;;
55007;SDS011;40902;45.116;21.296;2024-02-26T07:33:25;18.20;;;12.10;;
55007;SDS011;40902;45.116;21.296;2024-02-26T07:35:51;14.63;;;12.52;;
55007;SDS011;40902;45.116;21.296;2024-02-26T07:38:18;16.85;;;11.98;;
55007;SDS011;40902;45.116;21.296;2024-02-26T07:40:45;18.98;;;12.07;;
55007;SDS011;40902;45.116;21.296;2024-02-26T07:43:11;16.08;;;11.85;;
55007;SDS011;40902;45.116;21.296;2024-02-26T07:45:36;16.50;;;11.50;;
55007;SDS011;40902;45.116;21.296;2024-02-26T07:48:02;13.55;;;11.07;;
55007;SDS011;40902;45.116;21.296;2024-02-26T07:50:28;14.05;;;10.52;;
55007;SDS011;40902;45.116;21.296;2024-02-26T07:52:54;13.18;;;10.77;;
55007;SDS011;40902;45.116;21.296;2024-02-26T07:55:20;15.35;;;11.30;;
55007;SDS011;40902;45.116;21.296;2024-02-26T07:57:47;15.63;;;10.27;;
55007;SDS011;40902;45.116;21.296;2024-02-26T08:00:13;14.65;;;10.73;;
55007;SDS011;40902;45.116;21.296;2024-02-26T08:02:41;17.35;;;11.25;;
55007;SDS011;40902;45.116;21.296;2024-02-26T08:05:08;14.45;;;11.07;;
55007;SDS011;40902;45.116;21.296;2024-02-26T08:07:34;15.15;;;11.20;;
55007;SDS011;40902;45.116;21.296;2024-02-26T08:10:00;15.98;;;11.25;;
55007;SDS011;40902;45.116;21.296;2024-02-26T08:12:25;16.55;;;11.02;;
55007;SDS011;40902;45.116;21.296;2024-02-26T08:14:51;16.23;;;11.52;;
55007;SDS011;40902;45.116;21.296;2024-02-26T08:17:17;16.17;;;11.73;;
55007;SDS011;40902;45.116;21.296;2024-02-26T08:19:43;14.35;;;11.93;;
55007;SDS011;40902;45.116;21.296;2024-02-26T08:22:09;14.32;;;10.73;;
55007;SDS011;40902;45.116;21.296;2024-02-26T08:24:41;13.65;;;10.57;;
55007;SDS011;40902;45.116;21.296;2024-02-26T08:27:07;16.88;;;11.48;;
55007;SDS011;40902;45.116;21.296;2024-02-26T08:29:32;15.77;;;11.30;;
55007;SDS011;40902;45.116;21.296;2024-02-26T08:31:58;13.30;;;10.65;;
55007;SDS011;40902;45.116;21.296;2024-02-26T08:34:24;16.60;;;10.52;;
55007;SDS011;40902;45.116;21.296;2024-02-26T08:36:50;12.98;;;10.55;;
55007;SDS011;40902;45.116;21.296;2024-02-26T08:39:16;16.10;;;11.13;;
55007;SDS011;40902;45.116;21.296;2024-02-26T08:41:43;13.32;;;10.27;;
55007;SDS011;40902;45.116;21.296;2024-02-26T08:44:09;15.80;;;10.77;;
55007;SDS011;40902;45.116;21.296;2024-02-26T08:46:35;13.65;;;10.32;;
55007;SDS011;40902;45.116;21.296;2024-02-26T08:49:01;13.10;;;10.48;;
55007;SDS011;40902;45.116;21.296;2024-02-26T08:51:27;15.80;;;10.20;;
55007;SDS011;40902;45.116;21.296;2024-02-26T08:53:53;14.70;;;10.32;;
55007;SDS011;40902;45.116;21.296;2024-02-26T08:56:19;14.65;;;10.98;;
55007;SDS011;40902;45.116;21.296;2024-02-26T08:58:46;15.50;;;11.20;;
55007;SDS011;40902;45.116;21.296;2024-02-26T09:01:16;18.80;;;10.20;;
55007;SDS011;40902;45.116;21.296;2024-02-26T09:03:42;15.52;;;10.38;;
55007;SDS011;40902;45.116;21.296;2024-02-26T09:06:08;17.73;;;10.57;;
55007;SDS011;40902;45.116;21.296;2024-02-26T09:08:34;11.82;;;9.52;;
55007;SDS011;40902;45.116;21.296;2024-02-26T09:11:01;13.73;;;9.65;;
55007;SDS011;40902;45.116;21.296;2024-02-26T09:13:28;14.15;;;9.57;;
55007;SDS011;40902;45.116;21.296;2024-02-26T09:15:55;14.68;;;10.68;;
55007;SDS011;40902;45.116;21.296;2024-02-26T09:18:21;12.93;;;9.07;;
55007;SDS011;40902;45.116;21.296;2024-02-26T09:20:47;11.77;;;9.23;;
55007;SDS011;40902;45.116;21.296;2024-02-26T09:23:13;14.38;;;9.00;;
55007;SDS011;40902;45.116;21.296;2024-02-26T09:25:38;11.40;;;9.20;;
55007;SDS011;40902;45.116;21.296;2024-02-26T09:28:04;19.98;;;9.82;;
55007;SDS011;40902;45.116;21.296;2024-02-26T09:30:30;13.13;;;8.65;;
55007;SDS011;40902;45.116;21.296;2024-02-26T09:32:56;11.73;;;8.90;;
55007;SDS011;40902;45.116;21.296;2024-02-26T09:35:22;13.90;;;9.40;;
55007;SDS011;40902;45.116;21.296;2024-02-26T09:37:48;16.13;;;9.52;;
55007;SDS011;40902;45.116;21.296;2024-02-26T09:40:14;10.43;;;8.43;;
55007;SDS011;40902;45.116;21.296;2024-02-26T09:42:44;10.27;;;8.38;;
55007;SDS011;40902;45.116;21.296;2024-02-26T09:45:19;12.85;;;8.25;;
55007;SDS011;40902;45.116;21.296;2024-02-26T09:47:48;13.57;;;7.50;;
55007;SDS011;40902;45.116;21.296;2024-02-26T09:50:17;11.00;;;8.90;;
55007;SDS011;40902;45.116;21.296;2024-02-26T09:52:47;13.85;;;10.32;;
55007;SDS011;40902;45.116;21.296;2024-02-26T09:55:14;17.80;;;12.52;;
55007;SDS011;40902;45.116;21.296;2024-02-26T09:57:44;19.58;;;11.90;;
55007;SDS011;40902;45.116;21.296;2024-02-26T10:00:15;13.95;;;8.35;;
55007;SDS011;40902;45.116;21.296;2024-02-26T10:02:46;12.85;;;8.82;;
55007;SDS011;40902;45.116;21.296;2024-02-26T10:05:16;11.55;;;7.35;;
55007;SDS011;40902;45.116;21.296;2024-02-26T10:07:44;10.20;;;7.05;;
55007;SDS011;40902;45.116;21.296;2024-02-26T10:10:10;10.13;;;6.63;;
55007;SDS011;40902;45.116;21.296;2024-02-26T10:12:36;7.68;;;6.28;;
55007;SDS011;40902;45.116;21.296;2024-02-26T10:15:02;11.75;;;7.95;;
55007;SDS011;40902;45.116;21.296;2024-02-26T10:17:28;10.35;;;7.00;;
55007;SDS011;40902;45.116;21.296;2024-02-26T10:19:54;8.93;;;7.00;;
55007;SDS011;40902;45.116;21.296;2024-02-26T10:22:35;7.63;;;6.68;;
55007;SDS011;40902;45.116;21.296;2024-02-26T10:25:00;12.10;;;7.55;;
55007;SDS011;40902;45.116;21.296;2024-02-26T10:27:27;10.32;;;7.18;;
55007;SDS011;40902;45.116;21.296;2024-02-26T10:29:54;9.45;;;5.72;;
55007;SDS011;40902;45.116;21.296;2024-02-26T10:32:22;8.00;;;5.32;;
55007;SDS011;40902;45.116;21.296;2024-02-26T10:34:48;9.10;;;5.30;;
55007;SDS011;40902;45.116;21.296;2024-02-26T10:37:13;10.32;;;5.25;;
55007;SDS011;40902;45.116;21.296;2024-02-26T10:39:39;8.85;;;5.32;;
55007;SDS011;40902;45.116;21.296;2024-02-26T10:42:12;10.30;;;4.93;;
55007;SDS011;40902;45.116;21.296;2024-02-26T10:44:40;7.60;;;4.47;;
55007;SDS011;40902;45.116;21.296;2024-02-26T10:47:07;7.63;;;4.53;;
55007;SDS011;40902;45.116;21.296;2024-02-26T10:49:37;7.07;;;4.40;;
55007;SDS011;40902;45.116;21.296;2024-02-26T10:52:03;6.90;;;5.00;;
55007;SDS011;40902;45.116;21.296;2024-02-26T10:54:32;7.90;;;4.35;;
55007;SDS011;40902;45.116;21.296;2024-02-26T10:57:01;7.13;;;3.97;;
55007;SDS011;40902;45.116;21.296;2024-02-26T10:59:31;8.57;;;4.00;;
55007;SDS011;40902;45.116;21.296;2024-02-26T11:01:58;9.93;;;4.63;;
55007;SDS011;40902;45.116;21.296;2024-02-26T11:04:25;7.72;;;4.35;;
55007;SDS011;40902;45.116;21.296;2024-02-26T11:06:52;7.57;;;4.78;;
55007;SDS011;40902;45.116;21.296;2024-02-26T11:09:20;6.30;;;4.20;;
55007;SDS011;40902;45.116;21.296;2024-02-26T11:11:47;9.45;;;3.90;;
55007;SDS011;40902;45.116;21.296;2024-02-26T11:14:14;7.32;;;4.57;;
55007;SDS011;40902;45.116;21.296;2024-02-26T11:16:40;10.85;;;3.70;;
55007;SDS011;40902;45.116;21.296;2024-02-26T11:19:08;8.48;;;3.80;;
55007;SDS011;40902;45.116;21.296;2024-02-26T11:21:36;9.48;;;4.32;;
55007;SDS011;40902;45.116;21.296;2024-02-26T11:24:11;7.35;;;4.00;;
55007;SDS011;40902;45.116;21.296;2024-02-26T11:26:57;8.00;;;4.63;;
55007;SDS011;40902;45.116;21.296;2024-02-26T11:29:25;6.85;;;4.50;;
55007;SDS011;40902;45.116;21.296;2024-02-26T11:31:52;8.65;;;4.60;;
55007;SDS011;40902;45.116;21.296;2024-02-26T11:34:21;8.32;;;5.93;;
55007;SDS011;40902;45.116;21.296;2024-02-26T11:36:48;9.55;;;4.80;;
55007;SDS011;40902;45.116;21.296;2024-02-26T11:39:14;8.07;;;4.35;;
55007;SDS011;40902;45.116;21.296;2024-02-26T11:41:42;8.93;;;4.57;;
55007;SDS011;40902;45.116;21.296;2024-02-26T11:44:08;6.18;;;3.92;;
55007;SDS011;40902;45.116;21.296;2024-02-26T11:46:41;9.20;;;4.93;;
55007;SDS011;40902;45.116;21.296;2024-02-26T11:51:56;5.65;;;4.00;;
55007;SDS011;40902;45.116;21.296;2024-02-26T11:54:39;6.82;;;4.57;;
55007;SDS011;40902;45.116;21.296;2024-02-26T12:05:12;9.13;;;5.03;;
55007;SDS011;40902;45.116;21.296;2024-02-26T12:07:45;11.77;;;4.55;;
55007;SDS011;40902;45.116;21.296;2024-02-26T12:10:24;7.07;;;4.40;;
55007;SDS011;40902;45.116;21.296;2024-02-26T12:15:33;9.50;;;4.40;;
55007;SDS011;40902;45.116;21.296;2024-02-26T12:18:00;7.60;;;4.40;;
55007;SDS011;40902;45.116;21.296;2024-02-26T12:20:26;7.60;;;4.50;;
55007;SDS011;40902;45.116;21.296;2024-02-26T12:22:53;7.63;;;4.22;;
55007;SDS011;40902;45.116;21.296;2024-02-26T12:25:25;8.43;;;4.60;;
55007;SDS011;40902;45.116;21.296;2024-02-26T12:27:57;6.88;;;4.70;;
55007;SDS011;40902;45.116;21.296;2024-02-26T12:30:24;8.05;;;4.18;;
55007;SDS011;40902;45.116;21.296;2024-02-26T12:32:51;7.13;;;4.32;;
55007;SDS011;40902;45.116;21.296;2024-02-26T12:35:22;10.73;;;5.00;;
55007;SDS011;40902;45.116;21.296;2024-02-26T12:37:51;8.95;;;4.07;;
55007;SDS011;40902;45.116;21.296;2024-02-26T12:40:20;7.28;;;3.95;;
55007;SDS011;40902;45.116;21.296;2024-02-26T12:42:46;6.97;;;3.97;;
55007;SDS011;40902;45.116;21.296;2024-02-26T12:45:15;7.65;;;4.45;;
55007;SDS011;40902;45.116;21.296;2024-02-26T12:47:42;7.65;;;4.10;;
55007;SDS011;40902;45.116;21.296;2024-02-26T12:50:09;8.98;;;4.68;;
55007;SDS011;40902;45.116;21.296;2024-02-26T12:52:37;7.72;;;4.10;;
55007;SDS011;40902;45.116;21.296;2024-02-26T12:55:04;7.47;;;4.70;;
55007;SDS011;40902;45.116;21.296;2024-02-26T12:57:34;9.02;;;4.63;;
55007;SDS011;40902;45.116;21.296;2024-02-26T13:00:01;10.68;;;4.53;;
55007;SDS011;40902;45.116;21.296;2024-02-26T13:02:29;8.48;;;4.55;;
55007;SDS011;40902;45.116;21.296;2024-02-26T13:04:55;7.30;;;4.40;;
55007;SDS011;40902;45.116;21.296;2024-02-26T13:07:22;6.25;;;4.00;;
55007;SDS011;40902;45.116;21.296;2024-02-26T13:09:48;10.85;;;4.78;;
55007;SDS011;40902;45.116;21.296;2024-02-26T13:12:15;7.28;;;4.82;;
55007;SDS011;40902;45.116;21.296;2024-02-26T13:14:42;8.88;;;4.07;;
55007;SDS011;40902;45.116;21.296;2024-02-26T13:17:08;9.18;;;4.70;;
55007;SDS011;40902;45.116;21.296;2024-02-26T13:19:37;6.15;;;4.00;;
55007;SDS011;40902;45.116;21.296;2024-02-26T13:22:06;8.48;;;5.00;;
55007;SDS011;40902;45.116;21.296;2024-02-26T13:24:33;8.25;;;4.35;;
55007;SDS011;40902;45.116;21.296;2024-02-26T13:26:59;7.85;;;5.00;;
55007;SDS011;40902;45.116;21.296;2024-02-26T13:29:28;9.70;;;5.38;;
55007;SDS011;40902;45.116;21.296;2024-02-26T13:31:57;6.90;;;4.78;;
55007;SDS011;40902;45.116;21.296;2024-02-26T13:34:24;6.28;;;4.20;;
55007;SDS011;40902;45.116;21.296;2024-02-26T13:36:51;8.60;;;3.83;;
55007;SDS011;40902;45.116;21.296;2024-02-26T13:39:25;7.53;;;4.03;;
55007;SDS011;40902;45.116;21.296;2024-02-26T13:41:55;8.98;;;4.32;;
55007;SDS011;40902;45.116;21.296;2024-02-26T13:44:22;12.10;;;4.45;;
55007;SDS011;40902;45.116;21.296;2024-02-26T13:46:48;8.50;;;4.35;;
55007;SDS011;40902;45.116;21.296;2024-02-26T13:49:14;8.57;;;4.68;;
55007;SDS011;40902;45.116;21.296;2024-02-26T13:51:40;8.63;;;4.15;;
55007;SDS011;40902;45.116;21.296;2024-02-26T13:54:07;7.95;;;4.57;;
55007;SDS011;40902;45.116;21.296;2024-02-26T13:56:35;6.68;;;4.07;;
55007;SDS011;40902;45.116;21.296;2024-02-26T13:59:09;8.82;;;3.72;;
55007;SDS011;40902;45.116;21.296;2024-02-26T14:01:35;8.75;;;4.47;;
55007;SDS011;40902;45.116;21.296;2024-02-26T14:04:01;9.50;;;5.25;;
55007;SDS011;40902;45.116;21.296;2024-02-26T14:06:28;11.90;;;5.18;;
55007;SDS011;40902;45.116;21.296;2024-02-26T14:08:55;8.25;;;5.18;;
55007;SDS011;40902;45.116;21.296;2024-02-26T14:11:26;7.88;;;5.15;;
55007;SDS011;40902;45.116;21.296;2024-02-26T14:13:54;8.45;;;4.93;;
55007;SDS011;40902;45.116;21.296;2024-02-26T14:16:20;11.68;;;5.82;;
55007;SDS011;40902;45.116;21.296;2024-02-26T14:18:46;9.02;;;5.18;;
55007;SDS011;40902;45.116;21.296;2024-02-26T14:21:12;7.75;;;5.28;;
55007;SDS011;40902;45.116;21.296;2024-02-26T14:23:41;7.55;;;4.75;;
55007;SDS011;40902;45.116;21.296;2024-02-26T14:26:09;10.90;;;5.00;;
55007;SDS011;40902;45.116;21.296;2024-02-26T14:28:43;8.90;;;5.63;;